CheckWX is a tool to help pilots better visualize weather data.  It is not intended as a substitute for an official pre-flight weather briefing.

18:27:04 UTC

LRAR METAR
Arad International Airport
Arad, Romania
Current

27 mins ago

LRAR 251800Z 15008KT 9999 FEW050CB 27/16 Q1019
Observed
Aug-25 @ 18:00 UTC
Wind
  • 150° at 8 KTS
Visibility
10,000+ meters
Flight Rules
VFR
Cloud Levels
  • Few at 5,000' AGL
Temperature
27°C / 81°F
Dewpoint
16°C / 61°F
Heat Index
28°C / 82°F
Humidity
51%
Altimeter
30.09" Hg
Pressure
1018.92 hPa
Previous

57 mins ago

LRAR 251730Z 18003KT 9999 FEW050CB 28/16 Q1018
Observed
Aug-25 @ 17:30 UTC
Wind
  • 180° at 3 KTS
Visibility
10,000+ meters
Flight Rules
VFR
Cloud Levels
  • Few at 5,000' AGL
Temperature
28°C / 82°F
Dewpoint
16°C / 61°F
Heat Index
28°C / 82°F
Humidity
48%
Altimeter
30.06" Hg
Pressure
1017.92 hPa
Previous

1 hour ago

LRAR 251700Z 17007KT 130V200 9999 FEW050CB 29/16 Q1018
Observed
Aug-25 @ 17:00 UTC
Wind
  • 170° at 7 KTS
Visibility
10,000+ meters
Flight Rules
VFR
Cloud Levels
  • Few at 5,000' AGL
Temperature
29°C / 84°F
Dewpoint
16°C / 61°F
Heat Index
29°C / 84°F
Humidity
45%
Altimeter
30.06" Hg
Pressure
1017.92 hPa